createdAt,value
2023-03-05T00:01:16.355Z,18.50
2023-03-05T00:06:21.580Z,15.60
2023-03-05T00:11:28.089Z,16.20
2023-03-05T00:16:30.460Z,12.80
2023-03-05T00:21:36.363Z,12.10
2023-03-05T00:26:39.190Z,12.40
2023-03-05T00:31:44.892Z,10.90
2023-03-05T00:36:51.389Z,9.40
2023-03-05T00:42:14.046Z,11.90
2023-03-05T00:47:18.455Z,12.30
2023-03-05T00:52:22.138Z,13.70
2023-03-05T00:57:24.349Z,12.50
2023-03-05T01:02:26.941Z,12.90
2023-03-05T01:07:29.166Z,15.20
2023-03-05T01:12:31.361Z,14.50
2023-03-05T01:17:33.549Z,15.70
2023-03-05T01:22:36.004Z,16.70
2023-03-05T01:27:38.156Z,15.80
2023-03-05T01:32:40.258Z,15.80
2023-03-05T01:37:42.925Z,12.90
2023-03-05T01:42:55.599Z,7.30
2023-03-05T01:47:58.591Z,5.60
2023-03-05T01:53:06.213Z,5.30
2023-03-05T01:58:13.793Z,6.00
2023-03-05T02:03:15.754Z,5.40
2023-03-05T02:08:20.559Z,5.40
2023-03-05T02:13:25.760Z,8.00
2023-03-05T02:18:28.828Z,8.20
2023-03-05T02:23:36.626Z,6.90
2023-03-05T02:28:43.295Z,7.50
2023-03-05T02:33:45.683Z,8.10
2023-03-05T02:38:48.610Z,10.80
2023-03-05T02:43:51.227Z,9.60
2023-03-05T02:48:53.594Z,12.70
2023-03-05T02:53:56.249Z,12.50
2023-03-05T02:59:01.678Z,15.90
2023-03-05T03:04:04.083Z,14.60
2023-03-05T03:09:06.175Z,13.80
2023-03-05T03:14:08.233Z,10.40
2023-03-05T03:19:10.401Z,12.70
2023-03-05T03:24:12.312Z,11.50
2023-03-05T03:29:14.386Z,11.30
2023-03-05T03:34:17.563Z,9.20
2023-03-05T03:39:20.607Z,9.10
2023-03-05T03:44:22.826Z,8.70
2023-03-05T03:49:26.307Z,7.30
2023-03-05T03:54:28.352Z,9.60
2023-03-05T03:59:30.301Z,11.40
2023-03-05T04:04:33.152Z,11.60
2023-03-05T04:09:35.001Z,13.70
2023-03-05T04:14:38.088Z,12.80
2023-03-05T04:19:40.854Z,11.20
2023-03-05T04:24:43.558Z,11.10
2023-03-05T04:29:45.665Z,9.90
2023-03-05T04:34:47.838Z,9.60
2023-03-05T04:39:50.079Z,8.90
2023-03-05T04:44:52.435Z,11.60
2023-03-05T04:49:54.505Z,9.30
2023-03-05T04:54:56.799Z,8.00
2023-03-05T04:59:58.882Z,9.20
2023-03-05T05:05:01.381Z,9.90
2023-03-05T05:10:04.729Z,12.30
2023-03-05T05:15:08.766Z,10.20
2023-03-05T05:20:12.916Z,11.00
2023-03-05T05:25:15.576Z,7.30
2023-03-05T05:30:17.800Z,7.60
2023-03-05T05:35:19.739Z,6.50
2023-03-05T05:40:24.893Z,6.70
2023-03-05T05:45:29.609Z,4.60
2023-03-05T05:50:38.726Z,7.00
2023-03-05T05:55:41.361Z,6.30
2023-03-05T06:00:44.633Z,5.80
2023-03-05T06:05:48.153Z,9.90
2023-03-05T06:10:55.234Z,7.50
2023-03-05T06:15:59.478Z,6.20
2023-03-05T06:21:06.986Z,6.70
2023-03-05T06:26:12.059Z,7.10
2023-03-05T06:31:17.446Z,7.60
2023-03-05T06:36:22.196Z,10.90
2023-03-05T06:41:28.124Z,10.40
2023-03-05T06:46:37.298Z,9.40
2023-03-05T06:51:40.524Z,12.90
2023-03-05T06:56:47.285Z,11.50
2023-03-05T07:01:49.571Z,12.40
2023-03-05T07:06:51.470Z,19.50
2023-03-05T07:11:53.446Z,26.50
2023-03-05T07:16:55.766Z,24.00
2023-03-05T07:21:57.742Z,22.30
2023-03-05T07:27:00.117Z,21.10
2023-03-05T07:32:03.087Z,17.80
2023-03-05T07:37:05.375Z,14.50
2023-03-05T07:42:07.581Z,13.80
2023-03-05T07:47:23.430Z,17.40
2023-03-05T07:52:25.629Z,13.90
2023-03-05T07:57:28.107Z,13.40
2023-03-05T08:02:30.530Z,13.20
2023-03-05T08:07:32.734Z,11.10
2023-03-05T08:12:35.619Z,9.00
2023-03-05T08:17:37.665Z,12.00
2023-03-05T08:22:39.652Z,13.70
2023-03-05T08:27:43.885Z,17.40
2023-03-05T08:32:46.322Z,15.90
2023-03-05T08:37:48.739Z,21.20
2023-03-05T08:42:52.490Z,23.40
2023-03-05T08:47:57.311Z,24.10
2023-03-05T08:53:00.609Z,24.30
2023-03-05T08:58:03.235Z,27.30
2023-03-05T09:03:05.699Z,24.60
2023-03-05T09:08:07.717Z,22.90
2023-03-05T09:13:10.410Z,19.40
2023-03-05T09:18:12.942Z,24.70
2023-03-05T09:23:15.618Z,19.30
2023-03-05T09:28:17.898Z,17.60
2023-03-05T09:33:22.033Z,11.70
2023-03-05T09:38:24.194Z,14.80
2023-03-05T09:43:38.548Z,13.20
2023-03-05T09:48:57.755Z,11.00
2023-03-05T09:54:05.756Z,12.00
2023-03-05T09:59:31.824Z,9.40
2023-03-05T10:04:48.341Z,10.40
2023-03-05T10:10:05.564Z,11.20
2023-03-05T10:15:21.150Z,10.20
2023-03-05T10:20:29.508Z,9.20
2023-03-05T10:25:34.629Z,9.70
2023-03-05T10:31:08.889Z,11.90
2023-03-05T10:36:49.625Z,10.50
2023-03-05T10:42:06.619Z,8.70
2023-03-05T10:47:21.738Z,9.40
2023-03-05T10:52:35.248Z,10.20
2023-03-05T10:57:37.332Z,9.90
2023-03-05T11:02:56.438Z,10.30
2023-03-05T11:07:58.939Z,9.70
2023-03-05T11:13:01.025Z,8.90
2023-03-05T11:18:16.938Z,11.30
2023-03-05T11:23:20.902Z,9.60
2023-03-05T11:28:33.609Z,8.40
2023-03-05T11:33:37.383Z,9.30
2023-03-05T11:38:51.482Z,7.90
2023-03-05T11:43:55.661Z,9.10
2023-03-05T11:49:02.527Z,9.00
2023-03-05T11:54:12.033Z,5.50
2023-03-05T11:59:23.497Z,4.40
2023-03-05T12:04:25.711Z,6.10
2023-03-05T12:09:49.557Z,5.70
2023-03-05T12:15:01.596Z,4.00
2023-03-05T12:20:36.697Z,3.20
2023-03-05T12:25:50.696Z,5.60
2023-03-05T12:30:54.674Z,5.40
2023-03-05T12:36:22.270Z,3.60
2023-03-05T12:41:25.753Z,6.30
2023-03-05T12:46:31.611Z,3.80
2023-03-05T12:51:38.840Z,3.20
2023-03-05T12:56:46.337Z,4.20
2023-03-05T13:02:00.627Z,3.20
2023-03-05T13:07:17.543Z,5.00
2023-03-05T13:12:20.126Z,3.90
2023-03-05T13:17:35.854Z,4.20
2023-03-05T13:22:39.030Z,3.80
2023-03-05T13:27:41.808Z,5.00
2023-03-05T13:32:44.122Z,6.50
2023-03-05T13:37:46.505Z,5.20
2023-03-05T13:42:48.790Z,7.20
2023-03-05T13:48:00.077Z,5.90
2023-03-05T13:53:23.058Z,5.60
2023-03-05T13:58:49.694Z,4.80
2023-03-05T14:03:54.586Z,8.40
2023-03-05T14:09:17.299Z,6.60
2023-03-05T14:14:22.053Z,5.20
2023-03-05T14:19:37.232Z,4.30
2023-03-05T14:24:39.345Z,7.50
2023-03-05T14:29:46.637Z,9.20
2023-03-05T14:34:55.122Z,9.10
2023-03-05T14:40:06.385Z,6.30
2023-03-05T14:45:16.498Z,5.20
2023-03-05T14:50:32.306Z,5.10
2023-03-05T14:55:35.328Z,5.40
2023-03-05T15:00:37.472Z,4.10
2023-03-05T15:05:40.643Z,4.90
2023-03-05T15:10:42.987Z,6.60
2023-03-05T15:15:47.106Z,4.10
2023-03-05T15:20:52.047Z,5.60
2023-03-05T15:25:54.050Z,3.60
2023-03-05T15:30:59.658Z,5.60
2023-03-05T15:36:02.579Z,7.70
2023-03-05T15:41:05.845Z,7.20
2023-03-05T15:46:08.286Z,5.30
2023-03-05T15:51:13.490Z,5.60
2023-03-05T15:56:19.442Z,5.30
2023-03-05T16:01:23.473Z,6.00
2023-03-05T16:06:26.325Z,7.60
2023-03-05T16:11:33.005Z,6.50
2023-03-05T16:16:36.318Z,8.20
2023-03-05T16:21:38.335Z,8.10
2023-03-05T16:26:41.446Z,5.50
2023-03-05T16:31:45.466Z,5.10
2023-03-05T16:36:50.914Z,6.70
2023-03-05T16:41:53.419Z,5.70
2023-03-05T16:46:56.510Z,5.40
2023-03-05T16:52:06.252Z,7.30
2023-03-05T16:57:18.301Z,5.90
2023-03-05T17:02:20.281Z,6.90
2023-03-05T17:07:22.142Z,8.40
2023-03-05T17:12:24.373Z,9.60
2023-03-05T17:17:26.231Z,4.50
2023-03-05T17:22:28.404Z,6.10
2023-03-05T17:27:30.264Z,4.90
2023-03-05T17:32:32.411Z,6.00
2023-03-05T17:37:34.320Z,5.70
2023-03-05T17:42:36.058Z,8.00
2023-03-05T17:47:37.930Z,7.80
2023-03-05T17:52:41.372Z,8.60
2023-03-05T17:57:45.601Z,10.30
2023-03-05T18:02:48.595Z,10.80
2023-03-05T18:07:51.427Z,12.40
2023-03-05T18:12:54.740Z,11.20
2023-03-05T18:17:56.785Z,12.50
2023-03-05T18:23:00.943Z,9.30
2023-03-05T18:28:08.768Z,9.30
2023-03-05T18:33:29.410Z,8.60
2023-03-05T18:38:32.204Z,8.20
2023-03-05T18:43:34.986Z,7.50
2023-03-05T18:48:36.997Z,7.30
2023-03-05T18:53:39.255Z,9.20
2023-03-05T18:58:41.549Z,9.30
2023-03-05T19:03:49.070Z,14.30
2023-03-05T19:09:08.674Z,13.00
2023-03-05T19:14:15.987Z,15.10
2023-03-05T19:19:20.498Z,17.60
2023-03-05T19:24:24.547Z,15.40
2023-03-05T19:29:32.776Z,12.30
2023-03-05T19:34:35.606Z,15.30
2023-03-05T19:39:38.746Z,12.10
2023-03-05T19:44:44.386Z,12.70
2023-03-05T19:49:46.312Z,11.30
2023-03-05T19:54:48.628Z,7.60
2023-03-05T19:59:54.587Z,7.10
2023-03-05T20:04:57.549Z,8.80
2023-03-05T20:10:00.106Z,11.60
2023-03-05T20:15:02.837Z,9.60
2023-03-05T20:20:06.215Z,11.30
2023-03-05T20:25:10.050Z,8.00
2023-03-05T20:30:14.560Z,11.70
2023-03-05T20:35:18.125Z,26.50
2023-03-05T20:40:19.989Z,28.30
2023-03-05T20:45:21.801Z,19.70
2023-03-05T20:50:23.815Z,27.70
2023-03-05T20:55:28.893Z,24.90
2023-03-05T21:00:31.561Z,25.90
2023-03-05T21:05:35.177Z,26.20
2023-03-05T21:10:38.423Z,23.40
2023-03-05T21:15:41.186Z,16.80
2023-03-05T21:20:43.114Z,16.30
2023-03-05T21:25:45.726Z,22.90
2023-03-05T21:30:51.910Z,27.40
2023-03-05T21:35:55.064Z,46.20
2023-03-05T21:40:58.848Z,32.60
2023-03-05T21:46:03.546Z,32.10
2023-03-05T21:51:22.971Z,20.50
2023-03-05T21:56:37.949Z,20.50
2023-03-05T22:01:40.198Z,18.20
2023-03-05T22:06:43.202Z,20.30
2023-03-05T22:11:45.922Z,24.70
2023-03-05T22:17:01.722Z,18.20
2023-03-05T22:22:04.413Z,21.00
2023-03-05T22:27:09.244Z,29.50
2023-03-05T22:32:11.271Z,26.20
2023-03-05T22:37:13.317Z,21.30
2023-03-05T22:42:16.451Z,19.40
2023-03-05T22:47:19.669Z,24.10
2023-03-05T22:52:24.801Z,16.70
2023-03-05T22:57:26.806Z,19.20
2023-03-05T23:02:29.263Z,18.60
2023-03-05T23:07:34.325Z,21.20
2023-03-05T23:12:40.254Z,21.60
2023-03-05T23:17:42.969Z,20.90
2023-03-05T23:22:45.847Z,21.00
2023-03-05T23:27:49.986Z,24.50
2023-03-05T23:32:59.667Z,25.90
2023-03-05T23:38:04.404Z,27.80
2023-03-05T23:43:06.793Z,25.10
2023-03-05T23:48:10.295Z,29.00
2023-03-05T23:53:17.405Z,26.30
2023-03-05T23:58:23.401Z,27.20
